createdAt,value
2019-04-04T00:00:07.156Z,7.97
2019-04-04T00:05:13.222Z,9.67
2019-04-04T00:10:19.393Z,9.17
2019-04-04T00:15:23.944Z,9.93
2019-04-04T00:20:31.507Z,7.07
2019-04-04T00:25:36.093Z,9.17
2019-04-04T00:30:40.653Z,8.17
2019-04-04T00:35:46.632Z,11.10
2019-04-04T00:40:51.187Z,9.30
2019-04-04T00:45:57.134Z,7.03
2019-04-04T00:51:01.665Z,8.23
2019-04-04T00:56:07.710Z,5.53
2019-04-04T01:01:12.252Z,6.47
2019-04-04T01:06:18.077Z,7.87
2019-04-04T01:11:22.630Z,5.63
2019-04-04T01:16:28.297Z,5.67
2019-04-04T01:21:32.813Z,5.93
2019-04-04T01:26:38.606Z,5.73
2019-04-04T01:31:44.089Z,4.77
2019-04-04T01:36:51.157Z,5.93
2019-04-04T01:41:55.709Z,5.27
2019-04-04T01:47:01.453Z,4.93
2019-04-04T01:52:06.057Z,5.70
2019-04-04T01:57:12.009Z,4.63
2019-04-04T02:02:18.483Z,5.30
2019-04-04T02:07:24.516Z,6.20
2019-04-04T02:12:29.095Z,4.80
2019-04-04T02:17:34.273Z,4.50
2019-04-04T02:22:38.812Z,4.13
2019-04-04T02:27:43.585Z,5.73
2019-04-04T02:32:48.222Z,4.43
2019-04-04T02:37:55.524Z,3.50
2019-04-04T02:43:00.374Z,4.23
2019-04-04T02:48:04.959Z,4.33
2019-04-04T02:53:09.586Z,6.33
2019-04-04T02:58:15.424Z,4.10
2019-04-04T03:03:20.161Z,5.37
2019-04-04T03:08:24.793Z,6.07
2019-04-04T03:13:32.229Z,5.30
2019-04-04T03:18:37.222Z,6.90
2019-04-04T03:23:41.834Z,6.23
2019-04-04T03:28:46.526Z,4.67
2019-04-04T03:33:51.060Z,6.03
2019-04-04T03:38:55.658Z,5.50
2019-04-04T03:44:00.351Z,7.00
2019-04-04T03:49:04.901Z,5.97
2019-04-04T03:54:13.537Z,5.20
2019-04-04T03:59:18.080Z,6.83
2019-04-04T04:04:27.032Z,5.07
2019-04-04T04:09:30.723Z,6.13
2019-04-04T04:14:35.350Z,5.53
2019-04-04T04:19:40.070Z,4.57
2019-04-04T04:24:44.627Z,5.53
2019-04-04T04:29:49.173Z,5.23
2019-04-04T04:34:53.715Z,5.53
2019-04-04T04:39:58.268Z,6.03
2019-04-04T04:45:02.916Z,5.10
2019-04-04T04:50:09.620Z,6.00
2019-04-04T04:55:13.808Z,6.70
2019-04-04T05:00:18.346Z,7.37
2019-04-04T05:05:22.944Z,7.03
2019-04-04T05:10:27.520Z,5.50
2019-04-04T05:15:32.295Z,6.37
2019-04-04T05:20:37.749Z,10.10
2019-04-04T05:25:52.120Z,6.33
2019-04-04T05:30:48.663Z,4.73
2019-04-04T05:35:53.354Z,5.07
2019-04-04T05:40:57.982Z,10.20
2019-04-04T05:46:03.705Z,6.97
2019-04-04T05:51:08.306Z,8.27
2019-04-04T05:56:15.126Z,8.33
2019-04-04T06:01:19.734Z,7.07
2019-04-04T06:06:24.811Z,6.10
2019-04-04T06:11:29.333Z,8.43
2019-04-04T06:16:35.010Z,6.73
2019-04-04T06:21:40.276Z,8.27
2019-04-04T06:26:46.178Z,8.90
2019-04-04T06:31:50.744Z,7.87
2019-04-04T06:36:56.622Z,10.93
2019-04-04T06:42:04.061Z,13.07
2019-04-04T06:47:10.116Z,11.40
2019-04-04T06:52:16.330Z,12.23
2019-04-04T06:57:22.450Z,14.07
2019-04-04T07:02:27.086Z,12.97
2019-04-04T07:07:33.157Z,12.67
2019-04-04T07:12:38.685Z,12.33
2019-04-04T07:17:43.437Z,13.17
2019-04-04T07:22:48.082Z,10.30
2019-04-04T07:27:54.036Z,10.63
2019-04-04T07:32:58.642Z,10.70
2019-04-04T07:38:06.552Z,10.87
2019-04-04T07:43:11.091Z,11.50
2019-04-04T07:48:18.489Z,10.10
2019-04-04T07:53:24.422Z,10.00
2019-04-04T07:58:30.513Z,12.43
2019-04-04T08:03:36.151Z,14.33
2019-04-04T08:08:42.210Z,10.43
2019-04-04T08:13:46.761Z,10.53
2019-04-04T08:18:51.313Z,11.43
2019-04-04T08:23:55.918Z,12.17
2019-04-04T08:29:01.864Z,15.57
2019-04-04T08:34:06.412Z,10.67
2019-04-04T08:39:12.617Z,9.47
2019-04-04T08:44:17.179Z,15.70
2019-04-04T08:49:23.118Z,10.53
2019-04-04T08:54:27.658Z,8.67
2019-04-04T08:59:33.706Z,7.33
2019-04-04T09:04:38.361Z,9.13
2019-04-04T09:09:44.563Z,7.93
2019-04-04T09:14:49.387Z,10.07
2019-04-04T09:19:54.084Z,6.70
2019-04-04T09:24:58.629Z,9.40
2019-04-04T09:30:03.686Z,7.90
2019-04-04T09:35:08.292Z,3.80
2019-04-04T09:40:13.316Z,18.77
2019-04-04T09:45:17.862Z,4.27
2019-04-04T09:50:23.908Z,2.67
2019-04-04T09:55:28.447Z,3.27
2019-04-04T10:00:34.328Z,4.43
2019-04-04T10:05:38.929Z,3.50
2019-04-04T10:10:45.148Z,3.63
2019-04-04T10:15:49.689Z,2.43
2019-04-04T10:20:55.178Z,3.60
2019-04-04T10:25:59.746Z,2.80
2019-04-04T10:31:04.853Z,2.77
2019-04-04T10:36:09.439Z,2.83
2019-04-04T10:41:15.738Z,3.77
2019-04-04T10:46:21.352Z,4.20
2019-04-04T10:51:27.195Z,2.60
2019-04-04T10:56:31.717Z,3.23
2019-04-04T11:01:37.625Z,3.33
2019-04-04T11:06:42.218Z,2.90
2019-04-04T11:11:49.698Z,3.17
2019-04-04T11:16:54.261Z,2.60
2019-04-04T11:21:59.726Z,3.53
2019-04-04T11:27:06.258Z,2.13
2019-04-04T11:32:12.132Z,3.23
2019-04-04T11:37:16.683Z,2.57
2019-04-04T11:42:22.691Z,2.00
2019-04-04T11:47:27.213Z,3.23
2019-04-04T11:52:33.008Z,2.67
2019-04-04T11:57:37.643Z,2.33
2019-04-04T12:02:42.656Z,3.50
2019-04-04T12:07:57.315Z,2.50
2019-04-04T12:13:02.189Z,2.60
2019-04-04T12:18:06.722Z,5.83
2019-04-04T12:23:12.062Z,3.50
2019-04-04T12:28:16.659Z,2.30
2019-04-04T12:33:22.025Z,6.40
2019-04-04T12:38:26.630Z,9.20
2019-04-04T12:43:31.605Z,7.17
2019-04-04T12:48:36.249Z,7.47
2019-04-04T12:53:41.812Z,6.07
2019-04-04T12:58:46.352Z,7.13
2019-04-04T13:03:51.067Z,6.23
2019-04-04T13:08:55.663Z,4.17
2019-04-04T13:14:04.871Z,7.47
2019-04-04T13:19:09.528Z,5.70
2019-04-04T13:24:14.477Z,8.23
2019-04-04T13:29:21.227Z,10.50
2019-04-04T13:34:26.867Z,13.50
2019-04-04T13:39:31.503Z,13.77
2019-04-04T13:44:36.413Z,11.13
2019-04-04T13:49:42.186Z,9.20
2019-04-04T13:54:48.056Z,14.20
2019-04-04T13:59:52.826Z,16.07
2019-04-04T14:05:09.282Z,13.80
2019-04-04T14:10:04.386Z,11.60
2019-04-04T14:15:09.372Z,15.03
2019-04-04T14:20:13.898Z,9.57
2019-04-04T14:25:18.531Z,14.07
2019-04-04T14:30:24.962Z,13.27
2019-04-04T14:35:33.855Z,17.07
2019-04-04T14:40:39.842Z,15.80
2019-04-04T14:45:45.398Z,14.87
2019-04-04T14:50:53.815Z,14.93
2019-04-04T14:56:02.136Z,12.00
2019-04-04T15:01:10.463Z,13.93
2019-04-04T15:06:18.420Z,15.03
2019-04-04T15:11:24.310Z,18.53
2019-04-04T15:16:29.656Z,14.33
2019-04-04T15:21:34.401Z,14.63
2019-04-04T15:26:39.826Z,12.47
2019-04-04T15:31:44.673Z,14.80
2019-04-04T15:36:49.509Z,15.37
2019-04-04T15:41:54.462Z,13.60
2019-04-04T15:46:59.780Z,15.47
2019-04-04T15:52:05.501Z,15.47
2019-04-04T15:57:10.818Z,12.33
2019-04-04T16:02:15.401Z,14.43
2019-04-04T16:07:21.155Z,15.93
2019-04-04T16:12:26.257Z,13.33
2019-04-04T16:17:35.490Z,12.57
2019-04-04T16:22:41.317Z,12.87
2019-04-04T16:27:48.239Z,11.50
2019-04-04T16:32:53.250Z,9.27
2019-04-04T16:38:01.305Z,10.80
2019-04-04T16:43:15.376Z,8.83
2019-04-04T16:48:21.049Z,11.27
2019-04-04T16:53:25.693Z,11.23
2019-04-04T16:58:30.425Z,13.10
2019-04-04T17:03:35.119Z,10.10
2019-04-04T17:08:39.716Z,11.83
2019-04-04T17:13:44.389Z,10.37
2019-04-04T17:18:49.090Z,10.13
2019-04-04T17:23:53.741Z,14.10
2019-04-04T17:28:58.365Z,10.37
2019-04-04T17:34:03.236Z,10.63
2019-04-04T17:39:08.745Z,10.47
2019-04-04T17:44:13.546Z,9.77
2019-04-04T17:49:18.179Z,10.10
2019-04-04T17:54:22.708Z,9.27
2019-04-04T17:59:30.219Z,12.90
2019-04-04T18:04:34.799Z,9.50
2019-04-04T18:09:41.500Z,10.87
2019-04-04T18:14:45.781Z,7.87
2019-04-04T18:19:50.311Z,8.33
2019-04-04T18:24:54.866Z,10.03
2019-04-04T18:29:59.544Z,10.57
2019-04-04T18:35:04.853Z,8.07
2019-04-04T18:40:09.630Z,8.43
2019-04-04T18:45:14.256Z,8.63
2019-04-04T18:50:18.891Z,5.27
2019-04-04T18:55:23.593Z,8.83
2019-04-04T19:00:28.158Z,10.93
2019-04-04T19:05:32.740Z,10.27
2019-04-04T19:10:37.267Z,9.03
2019-04-04T19:15:41.953Z,13.50
2019-04-04T19:20:46.521Z,11.43
2019-04-04T19:25:51.166Z,13.57
2019-04-04T19:30:58.481Z,10.07
2019-04-04T19:36:03.116Z,12.13
2019-04-04T19:41:07.879Z,13.33
2019-04-04T19:46:13.046Z,13.33
2019-04-04T19:51:19.257Z,11.37
2019-04-04T19:56:24.345Z,10.50
2019-04-04T20:01:29.011Z,13.00
2019-04-04T20:06:34.237Z,8.87
2019-04-04T20:11:38.863Z,8.93
2019-04-04T20:16:43.726Z,9.80
2019-04-04T20:21:48.344Z,13.13
2019-04-04T20:26:53.092Z,15.93
2019-04-04T20:31:57.659Z,14.03
2019-04-04T20:37:03.076Z,12.13
2019-04-04T20:42:07.625Z,14.77
2019-04-04T20:47:13.130Z,11.80
2019-04-04T20:52:17.675Z,17.30
2019-04-04T20:57:22.634Z,11.67
2019-04-04T21:02:27.179Z,12.17
2019-04-04T21:07:32.393Z,13.27
2019-04-04T21:12:36.947Z,11.17
2019-04-04T21:17:42.170Z,15.50
2019-04-04T21:22:46.724Z,13.53
2019-04-04T21:27:52.674Z,13.13
2019-04-04T21:32:57.277Z,13.03
2019-04-04T21:38:01.914Z,11.57
2019-04-04T21:43:06.484Z,14.20
2019-04-04T21:48:11.101Z,10.77
2019-04-04T21:53:15.665Z,11.83
2019-04-04T21:58:20.496Z,9.33
2019-04-04T22:03:25.136Z,11.33
2019-04-04T22:08:29.689Z,10.80
2019-04-04T22:13:35.147Z,11.17
2019-04-04T22:18:39.694Z,10.93
2019-04-04T22:23:44.295Z,7.90
2019-04-04T22:28:49.886Z,6.67
2019-04-04T22:33:55.317Z,6.90
2019-04-04T22:38:59.927Z,7.37
2019-04-04T22:44:05.505Z,7.10
2019-04-04T22:49:10.043Z,6.93
2019-04-04T22:54:15.054Z,7.20
2019-04-04T22:59:19.608Z,6.10
2019-04-04T23:04:24.321Z,6.60
2019-04-04T23:09:28.870Z,6.10
2019-04-04T23:14:46.929Z,3.97
2019-04-04T23:19:40.019Z,4.40
2019-04-04T23:24:46.609Z,4.60
2019-04-04T23:29:50.881Z,5.40
2019-04-04T23:34:55.918Z,4.03
2019-04-04T23:40:00.477Z,4.53
2019-04-04T23:45:06.106Z,4.13
2019-04-04T23:50:10.711Z,4.27
2019-04-04T23:55:15.354Z,4.60
